sensor_id;sensor_type;location;lat;lon;timestamp;P1;durP1;ratioP1;P2;durP2;ratioP2
39566;SDS011;25241;41.978;14.664;2022-10-31T00:01:39;0.40;;;0.40;;
39566;SDS011;25241;41.978;14.664;2022-10-31T00:04:07;2.63;;;0.98;;
39566;SDS011;25241;41.978;14.664;2022-10-31T00:06:33;2.53;;;0.57;;
39566;SDS011;25241;41.978;14.664;2022-10-31T00:08:59;2.00;;;0.80;;
39566;SDS011;25241;41.978;14.664;2022-10-31T00:11:27;3.50;;;0.93;;
39566;SDS011;25241;41.978;14.664;2022-10-31T00:13:54;1.60;;;0.60;;
39566;SDS011;25241;41.978;14.664;2022-10-31T00:16:23;1.80;;;0.80;;
39566;SDS011;25241;41.978;14.664;2022-10-31T00:18:54;1.80;;;0.75;;
39566;SDS011;25241;41.978;14.664;2022-10-31T00:21:20;3.13;;;1.13;;
39566;SDS011;25241;41.978;14.664;2022-10-31T00:23:46;5.97;;;1.00;;
39566;SDS011;25241;41.978;14.664;2022-10-31T00:26:12;2.40;;;0.80;;
39566;SDS011;25241;41.978;14.664;2022-10-31T00:28:38;3.45;;;1.25;;
39566;SDS011;25241;41.978;14.664;2022-10-31T00:31:05;7.32;;;1.15;;
39566;SDS011;25241;41.978;14.664;2022-10-31T00:33:33;1.27;;;0.50;;
39566;SDS011;25241;41.978;14.664;2022-10-31T00:36:01;1.25;;;0.73;;
39566;SDS011;25241;41.978;14.664;2022-10-31T00:38:28;5.38;;;1.02;;
39566;SDS011;25241;41.978;14.664;2022-10-31T00:40:56;3.30;;;0.70;;
39566;SDS011;25241;41.978;14.664;2022-10-31T00:43:21;0.75;;;0.47;;
39566;SDS011;25241;41.978;14.664;2022-10-31T00:45:49;1.02;;;0.47;;
39566;SDS011;25241;41.978;14.664;2022-10-31T00:48:17;3.33;;;0.52;;
39566;SDS011;25241;41.978;14.664;2022-10-31T00:50:43;2.25;;;0.80;;
39566;SDS011;25241;41.978;14.664;2022-10-31T00:53:09;9.27;;;0.65;;
39566;SDS011;25241;41.978;14.664;2022-10-31T00:55:36;2.03;;;0.57;;
39566;SDS011;25241;41.978;14.664;2022-10-31T00:58:02;3.63;;;0.82;;
39566;SDS011;25241;41.978;14.664;2022-10-31T01:00:27;2.83;;;1.17;;
39566;SDS011;25241;41.978;14.664;2022-10-31T01:02:53;5.35;;;0.80;;
39566;SDS011;25241;41.978;14.664;2022-10-31T01:05:19;1.65;;;0.82;;
39566;SDS011;25241;41.978;14.664;2022-10-31T01:07:47;1.85;;;0.70;;
39566;SDS011;25241;41.978;14.664;2022-10-31T01:10:14;2.17;;;0.63;;
39566;SDS011;25241;41.978;14.664;2022-10-31T01:12:42;1.23;;;0.60;;
39566;SDS011;25241;41.978;14.664;2022-10-31T01:15:14;4.22;;;0.40;;
39566;SDS011;25241;41.978;14.664;2022-10-31T01:17:44;0.38;;;0.32;;
39566;SDS011;25241;41.978;14.664;2022-10-31T01:20:10;0.98;;;0.63;;
39566;SDS011;25241;41.978;14.664;2022-10-31T01:22:40;1.40;;;0.63;;
39566;SDS011;25241;41.978;14.664;2022-10-31T01:25:09;3.35;;;0.60;;
39566;SDS011;25241;41.978;14.664;2022-10-31T01:27:37;4.72;;;0.50;;
39566;SDS011;25241;41.978;14.664;2022-10-31T01:30:05;1.85;;;0.50;;
39566;SDS011;25241;41.978;14.664;2022-10-31T01:32:33;1.55;;;0.70;;
39566;SDS011;25241;41.978;14.664;2022-10-31T01:34:59;1.10;;;0.57;;
39566;SDS011;25241;41.978;14.664;2022-10-31T01:37:24;3.13;;;0.38;;
39566;SDS011;25241;41.978;14.664;2022-10-31T01:39:50;5.50;;;0.77;;
39566;SDS011;25241;41.978;14.664;2022-10-31T01:42:18;1.30;;;0.45;;
39566;SDS011;25241;41.978;14.664;2022-10-31T01:44:50;1.55;;;0.50;;
39566;SDS011;25241;41.978;14.664;2022-10-31T01:47:23;2.25;;;0.55;;
39566;SDS011;25241;41.978;14.664;2022-10-31T01:50:06;1.75;;;0.60;;
39566;SDS011;25241;41.978;14.664;2022-10-31T01:52:38;0.63;;;0.50;;
39566;SDS011;25241;41.978;14.664;2022-10-31T01:55:17;1.55;;;0.73;;
39566;SDS011;25241;41.978;14.664;2022-10-31T01:57:59;1.73;;;0.70;;
39566;SDS011;25241;41.978;14.664;2022-10-31T02:00:35;3.65;;;0.60;;
39566;SDS011;25241;41.978;14.664;2022-10-31T02:03:00;3.50;;;0.75;;
39566;SDS011;25241;41.978;14.664;2022-10-31T02:05:28;2.83;;;0.55;;
39566;SDS011;25241;41.978;14.664;2022-10-31T02:08:08;1.13;;;0.47;;
39566;SDS011;25241;41.978;14.664;2022-10-31T02:10:39;0.93;;;0.40;;
39566;SDS011;25241;41.978;14.664;2022-10-31T02:13:06;0.98;;;0.30;;
39566;SDS011;25241;41.978;14.664;2022-10-31T02:15:33;1.10;;;0.60;;
39566;SDS011;25241;41.978;14.664;2022-10-31T02:18:00;2.22;;;0.68;;
39566;SDS011;25241;41.978;14.664;2022-10-31T02:20:28;1.67;;;0.60;;
39566;SDS011;25241;41.978;14.664;2022-10-31T02:33:58;0.20;;;0.20;;
39566;SDS011;25241;41.978;14.664;2022-10-31T02:39:18;1.13;;;0.50;;
39566;SDS011;25241;41.978;14.664;2022-10-31T02:42:03;0.98;;;0.30;;
39566;SDS011;25241;41.978;14.664;2022-10-31T02:44:35;1.10;;;0.68;;
39566;SDS011;25241;41.978;14.664;2022-10-31T02:47:12;2.42;;;0.50;;
39566;SDS011;25241;41.978;14.664;2022-10-31T02:49:57;3.20;;;0.40;;
39566;SDS011;25241;41.978;14.664;2022-10-31T02:52:27;1.40;;;0.43;;
39566;SDS011;25241;41.978;14.664;2022-10-31T02:54:56;2.55;;;0.63;;
39566;SDS011;25241;41.978;14.664;2022-10-31T02:57:23;2.58;;;0.55;;
39566;SDS011;25241;41.978;14.664;2022-10-31T02:59:55;3.10;;;0.47;;
39566;SDS011;25241;41.978;14.664;2022-10-31T03:08:29;1.45;;;0.50;;
39566;SDS011;25241;41.978;14.664;2022-10-31T03:11:38;0.52;;;0.40;;
39566;SDS011;25241;41.978;14.664;2022-10-31T03:14:19;1.98;;;0.77;;
39566;SDS011;25241;41.978;14.664;2022-10-31T03:16:50;0.73;;;0.47;;
39566;SDS011;25241;41.978;14.664;2022-10-31T03:19:22;1.60;;;0.60;;
39566;SDS011;25241;41.978;14.664;2022-10-31T03:24:31;0.98;;;0.35;;
39566;SDS011;25241;41.978;14.664;2022-10-31T03:26:59;0.68;;;0.40;;
39566;SDS011;25241;41.978;14.664;2022-10-31T03:29:26;3.40;;;0.50;;
39566;SDS011;25241;41.978;14.664;2022-10-31T03:31:57;2.20;;;0.47;;
39566;SDS011;25241;41.978;14.664;2022-10-31T03:34:27;1.40;;;0.17;;
39566;SDS011;25241;41.978;14.664;2022-10-31T03:36:56;0.20;;;0.20;;
39566;SDS011;25241;41.978;14.664;2022-10-31T03:39:26;2.10;;;0.55;;
39566;SDS011;25241;41.978;14.664;2022-10-31T03:42:05;4.07;;;0.55;;
39566;SDS011;25241;41.978;14.664;2022-10-31T03:44:36;2.03;;;0.40;;
39566;SDS011;25241;41.978;14.664;2022-10-31T03:47:03;1.67;;;0.50;;
39566;SDS011;25241;41.978;14.664;2022-10-31T03:49:31;3.15;;;0.30;;
39566;SDS011;25241;41.978;14.664;2022-10-31T03:51:59;3.83;;;0.50;;
39566;SDS011;25241;41.978;14.664;2022-10-31T03:54:41;3.00;;;0.50;;
39566;SDS011;25241;41.978;14.664;2022-10-31T03:57:25;2.10;;;0.80;;
39566;SDS011;25241;41.978;14.664;2022-10-31T03:59:55;0.73;;;0.30;;
39566;SDS011;25241;41.978;14.664;2022-10-31T04:02:28;1.60;;;0.52;;
39566;SDS011;25241;41.978;14.664;2022-10-31T04:07:20;4.38;;;0.40;;
39566;SDS011;25241;41.978;14.664;2022-10-31T04:09:49;1.67;;;0.47;;
39566;SDS011;25241;41.978;14.664;2022-10-31T04:12:15;1.83;;;0.50;;
39566;SDS011;25241;41.978;14.664;2022-10-31T04:14:44;0.70;;;0.30;;
39566;SDS011;25241;41.978;14.664;2022-10-31T04:17:13;8.38;;;0.55;;
39566;SDS011;25241;41.978;14.664;2022-10-31T04:19:43;1.42;;;0.43;;
39566;SDS011;25241;41.978;14.664;2022-10-31T04:22:08;1.90;;;0.40;;
39566;SDS011;25241;41.978;14.664;2022-10-31T04:24:36;2.42;;;0.50;;
39566;SDS011;25241;41.978;14.664;2022-10-31T04:27:03;2.05;;;0.68;;
39566;SDS011;25241;41.978;14.664;2022-10-31T04:29:29;1.10;;;0.20;;
39566;SDS011;25241;41.978;14.664;2022-10-31T04:31:57;1.52;;;0.38;;
39566;SDS011;25241;41.978;14.664;2022-10-31T04:34:25;0.40;;;0.30;;
39566;SDS011;25241;41.978;14.664;2022-10-31T04:36:50;1.15;;;0.35;;
39566;SDS011;25241;41.978;14.664;2022-10-31T04:39:18;4.07;;;0.50;;
39566;SDS011;25241;41.978;14.664;2022-10-31T04:41:44;1.85;;;0.50;;
39566;SDS011;25241;41.978;14.664;2022-10-31T04:44:12;5.88;;;0.17;;
39566;SDS011;25241;41.978;14.664;2022-10-31T04:46:40;5.55;;;0.50;;
39566;SDS011;25241;41.978;14.664;2022-10-31T04:49:05;4.03;;;0.82;;
39566;SDS011;25241;41.978;14.664;2022-10-31T04:51:31;1.70;;;0.47;;
39566;SDS011;25241;41.978;14.664;2022-10-31T04:53:56;1.50;;;0.70;;
39566;SDS011;25241;41.978;14.664;2022-10-31T04:56:24;1.23;;;0.52;;
39566;SDS011;25241;41.978;14.664;2022-10-31T04:58:50;1.40;;;0.68;;
39566;SDS011;25241;41.978;14.664;2022-10-31T05:01:18;0.68;;;0.40;;
39566;SDS011;25241;41.978;14.664;2022-10-31T05:03:46;3.42;;;0.30;;
39566;SDS011;25241;41.978;14.664;2022-10-31T05:06:12;0.55;;;0.22;;
39566;SDS011;25241;41.978;14.664;2022-10-31T05:08:37;7.10;;;0.50;;
39566;SDS011;25241;41.978;14.664;2022-10-31T05:11:03;1.77;;;0.70;;
39566;SDS011;25241;41.978;14.664;2022-10-31T05:13:31;1.38;;;0.50;;
39566;SDS011;25241;41.978;14.664;2022-10-31T05:15:59;2.72;;;0.50;;
39566;SDS011;25241;41.978;14.664;2022-10-31T05:18:24;2.00;;;0.50;;
39566;SDS011;25241;41.978;14.664;2022-10-31T05:20:50;1.75;;;0.35;;
39566;SDS011;25241;41.978;14.664;2022-10-31T05:23:18;5.13;;;0.90;;
39566;SDS011;25241;41.978;14.664;2022-10-31T05:25:46;2.60;;;0.35;;
39566;SDS011;25241;41.978;14.664;2022-10-31T05:28:12;0.73;;;0.60;;
39566;SDS011;25241;41.978;14.664;2022-10-31T05:30:39;4.13;;;0.30;;
39566;SDS011;25241;41.978;14.664;2022-10-31T05:33:05;5.72;;;0.60;;
39566;SDS011;25241;41.978;14.664;2022-10-31T05:35:31;0.73;;;0.20;;
39566;SDS011;25241;41.978;14.664;2022-10-31T05:37:58;2.35;;;0.75;;
39566;SDS011;25241;41.978;14.664;2022-10-31T05:40:26;9.20;;;0.77;;
39566;SDS011;25241;41.978;14.664;2022-10-31T05:42:53;1.20;;;0.75;;
39566;SDS011;25241;41.978;14.664;2022-10-31T05:45:22;0.32;;;0.30;;
39566;SDS011;25241;41.978;14.664;2022-10-31T05:47:52;2.17;;;0.60;;
39566;SDS011;25241;41.978;14.664;2022-10-31T05:50:20;4.03;;;0.50;;
39566;SDS011;25241;41.978;14.664;2022-10-31T05:52:47;0.82;;;0.50;;
39566;SDS011;25241;41.978;14.664;2022-10-31T05:55:13;8.13;;;0.60;;
39566;SDS011;25241;41.978;14.664;2022-10-31T05:57:41;0.30;;;0.22;;
39566;SDS011;25241;41.978;14.664;2022-10-31T06:00:06;0.13;;;0.13;;
39566;SDS011;25241;41.978;14.664;2022-10-31T06:02:35;3.20;;;0.80;;
39566;SDS011;25241;41.978;14.664;2022-10-31T06:05:01;0.98;;;0.55;;
39566;SDS011;25241;41.978;14.664;2022-10-31T06:07:31;3.22;;;0.77;;
39566;SDS011;25241;41.978;14.664;2022-10-31T06:12:22;3.97;;;0.43;;
39566;SDS011;25241;41.978;14.664;2022-10-31T06:14:50;1.73;;;0.43;;
39566;SDS011;25241;41.978;14.664;2022-10-31T06:17:16;0.38;;;0.38;;
39566;SDS011;25241;41.978;14.664;2022-10-31T06:19:42;1.75;;;0.50;;
39566;SDS011;25241;41.978;14.664;2022-10-31T06:22:10;1.27;;;0.40;;
39566;SDS011;25241;41.978;14.664;2022-10-31T06:24:38;0.13;;;0.13;;
39566;SDS011;25241;41.978;14.664;2022-10-31T06:27:06;1.80;;;0.47;;
39566;SDS011;25241;41.978;14.664;2022-10-31T06:29:32;4.55;;;0.60;;
39566;SDS011;25241;41.978;14.664;2022-10-31T06:31:57;0.60;;;0.30;;
39566;SDS011;25241;41.978;14.664;2022-10-31T06:39:16;2.15;;;0.70;;
39566;SDS011;25241;41.978;14.664;2022-10-31T06:41:42;0.95;;;0.22;;
39566;SDS011;25241;41.978;14.664;2022-10-31T06:44:10;6.70;;;1.95;;
39566;SDS011;25241;41.978;14.664;2022-10-31T06:46:36;6.25;;;1.25;;
39566;SDS011;25241;41.978;14.664;2022-10-31T06:49:01;1.80;;;0.80;;
39566;SDS011;25241;41.978;14.664;2022-10-31T06:51:27;3.13;;;0.95;;
39566;SDS011;25241;41.978;14.664;2022-10-31T06:53:53;0.88;;;0.60;;
39566;SDS011;25241;41.978;14.664;2022-10-31T06:56:20;7.63;;;0.80;;
39566;SDS011;25241;41.978;14.664;2022-10-31T06:58:46;5.80;;;0.90;;
39566;SDS011;25241;41.978;14.664;2022-10-31T07:01:12;0.77;;;0.43;;
39566;SDS011;25241;41.978;14.664;2022-10-31T07:03:37;1.25;;;0.75;;
39566;SDS011;25241;41.978;14.664;2022-10-31T07:06:03;1.02;;;0.52;;
39566;SDS011;25241;41.978;14.664;2022-10-31T07:08:31;0.75;;;0.63;;
39566;SDS011;25241;41.978;14.664;2022-10-31T07:10:57;1.98;;;0.43;;
39566;SDS011;25241;41.978;14.664;2022-10-31T07:13:23;1.95;;;0.65;;
39566;SDS011;25241;41.978;14.664;2022-10-31T07:15:58;5.43;;;0.80;;
39566;SDS011;25241;41.978;14.664;2022-10-31T07:18:25;1.90;;;0.52;;
39566;SDS011;25241;41.978;14.664;2022-10-31T07:20:53;18.10;;;2.42;;
39566;SDS011;25241;41.978;14.664;2022-10-31T07:23:21;4.50;;;0.68;;
39566;SDS011;25241;41.978;14.664;2022-10-31T07:25:53;1.40;;;0.68;;
39566;SDS011;25241;41.978;14.664;2022-10-31T07:28:20;9.38;;;0.63;;
39566;SDS011;25241;41.978;14.664;2022-10-31T07:30:49;1.65;;;0.43;;
39566;SDS011;25241;41.978;14.664;2022-10-31T07:33:21;5.07;;;0.50;;
39566;SDS011;25241;41.978;14.664;2022-10-31T07:35:46;1.48;;;1.08;;
39566;SDS011;25241;41.978;14.664;2022-10-31T07:38:15;3.38;;;0.65;;
39566;SDS011;25241;41.978;14.664;2022-10-31T07:40:41;2.72;;;0.55;;
39566;SDS011;25241;41.978;14.664;2022-10-31T07:43:07;2.17;;;0.30;;
39566;SDS011;25241;41.978;14.664;2022-10-31T07:45:35;10.20;;;0.70;;
39566;SDS011;25241;41.978;14.664;2022-10-31T07:48:01;3.65;;;0.95;;
39566;SDS011;25241;41.978;14.664;2022-10-31T07:50:28;2.33;;;0.40;;
39566;SDS011;25241;41.978;14.664;2022-10-31T07:55:36;1.45;;;0.50;;
39566;SDS011;25241;41.978;14.664;2022-10-31T07:58:11;2.38;;;0.60;;
39566;SDS011;25241;41.978;14.664;2022-10-31T08:00:38;3.83;;;0.63;;
39566;SDS011;25241;41.978;14.664;2022-10-31T08:03:07;1.45;;;0.30;;
39566;SDS011;25241;41.978;14.664;2022-10-31T08:05:34;2.55;;;0.47;;
39566;SDS011;25241;41.978;14.664;2022-10-31T08:08:00;4.45;;;0.60;;
39566;SDS011;25241;41.978;14.664;2022-10-31T08:10:29;2.35;;;0.50;;
39566;SDS011;25241;41.978;14.664;2022-10-31T08:12:55;0.98;;;0.20;;
39566;SDS011;25241;41.978;14.664;2022-10-31T08:15:25;4.32;;;0.80;;
39566;SDS011;25241;41.978;14.664;2022-10-31T08:17:51;0.83;;;0.40;;
39566;SDS011;25241;41.978;14.664;2022-10-31T08:20:16;11.90;;;1.58;;
39566;SDS011;25241;41.978;14.664;2022-10-31T08:22:42;2.22;;;0.68;;
39566;SDS011;25241;41.978;14.664;2022-10-31T08:25:08;1.02;;;0.63;;
39566;SDS011;25241;41.978;14.664;2022-10-31T08:27:34;1.10;;;0.32;;
39566;SDS011;25241;41.978;14.664;2022-10-31T08:29:59;3.28;;;0.57;;
39566;SDS011;25241;41.978;14.664;2022-10-31T08:32:25;0.90;;;0.43;;
39566;SDS011;25241;41.978;14.664;2022-10-31T08:34:51;0.77;;;0.40;;
39566;SDS011;25241;41.978;14.664;2022-10-31T08:37:17;1.27;;;0.40;;
39566;SDS011;25241;41.978;14.664;2022-10-31T08:39:45;1.75;;;0.32;;
39566;SDS011;25241;41.978;14.664;2022-10-31T08:42:13;2.38;;;0.60;;
39566;SDS011;25241;41.978;14.664;2022-10-31T08:44:39;1.23;;;0.30;;
39566;SDS011;25241;41.978;14.664;2022-10-31T08:47:04;1.75;;;0.47;;
39566;SDS011;25241;41.978;14.664;2022-10-31T08:49:30;3.40;;;1.10;;
39566;SDS011;25241;41.978;14.664;2022-10-31T11:24:52;7.35;;;0.70;;
39566;SDS011;25241;41.978;14.664;2022-10-31T11:29:50;4.15;;;0.98;;
39566;SDS011;25241;41.978;14.664;2022-10-31T11:32:18;2.47;;;0.77;;
39566;SDS011;25241;41.978;14.664;2022-10-31T11:34:52;1.30;;;0.57;;
39566;SDS011;25241;41.978;14.664;2022-10-31T11:37:26;3.85;;;0.60;;
39566;SDS011;25241;41.978;14.664;2022-10-31T11:40:00;1.50;;;0.60;;
39566;SDS011;25241;41.978;14.664;2022-10-31T11:42:29;4.70;;;0.88;;
39566;SDS011;25241;41.978;14.664;2022-10-31T11:45:06;2.05;;;0.70;;
39566;SDS011;25241;41.978;14.664;2022-10-31T11:47:51;3.53;;;0.50;;
39566;SDS011;25241;41.978;14.664;2022-10-31T11:50:25;2.42;;;0.82;;
39566;SDS011;25241;41.978;14.664;2022-10-31T11:53:15;5.18;;;1.08;;
39566;SDS011;25241;41.978;14.664;2022-10-31T11:55:42;4.03;;;1.20;;
39566;SDS011;25241;41.978;14.664;2022-10-31T11:58:21;1.92;;;0.90;;
39566;SDS011;25241;41.978;14.664;2022-10-31T12:00:51;4.80;;;1.17;;
39566;SDS011;25241;41.978;14.664;2022-10-31T12:05:49;7.53;;;1.08;;
39566;SDS011;25241;41.978;14.664;2022-10-31T12:08:29;5.10;;;1.33;;
39566;SDS011;25241;41.978;14.664;2022-10-31T12:10:58;2.70;;;1.30;;
39566;SDS011;25241;41.978;14.664;2022-10-31T12:13:58;2.85;;;1.02;;
39566;SDS011;25241;41.978;14.664;2022-10-31T12:30:21;2.88;;;0.55;;
39566;SDS011;25241;41.978;14.664;2022-10-31T12:33:16;1.80;;;0.70;;
39566;SDS011;25241;41.978;14.664;2022-10-31T12:35:57;2.85;;;1.13;;
39566;SDS011;25241;41.978;14.664;2022-10-31T12:52:08;8.77;;;0.70;;
39566;SDS011;25241;41.978;14.664;2022-10-31T12:58:10;3.85;;;0.60;;
39566;SDS011;25241;41.978;14.664;2022-10-31T13:00:43;1.92;;;1.00;;
39566;SDS011;25241;41.978;14.664;2022-10-31T13:03:20;1.80;;;0.88;;
39566;SDS011;25241;41.978;14.664;2022-10-31T13:06:02;2.85;;;0.63;;
39566;SDS011;25241;41.978;14.664;2022-10-31T13:08:35;3.40;;;0.70;;
39566;SDS011;25241;41.978;14.664;2022-10-31T13:11:12;6.35;;;0.75;;
39566;SDS011;25241;41.978;14.664;2022-10-31T13:13:43;6.53;;;0.93;;
39566;SDS011;25241;41.978;14.664;2022-10-31T13:16:15;2.47;;;1.45;;
39566;SDS011;25241;41.978;14.664;2022-10-31T13:19:06;8.57;;;1.25;;
39566;SDS011;25241;41.978;14.664;2022-10-31T13:21:37;4.23;;;1.27;;
39566;SDS011;25241;41.978;14.664;2022-10-31T13:24:04;2.45;;;0.82;;
39566;SDS011;25241;41.978;14.664;2022-10-31T13:26:46;8.10;;;1.10;;
39566;SDS011;25241;41.978;14.664;2022-10-31T13:32:36;4.15;;;1.67;;
39566;SDS011;25241;41.978;14.664;2022-10-31T13:38:11;5.45;;;0.80;;
39566;SDS011;25241;41.978;14.664;2022-10-31T13:44:02;5.15;;;1.67;;
39566;SDS011;25241;41.978;14.664;2022-10-31T13:46:37;4.25;;;1.10;;
39566;SDS011;25241;41.978;14.664;2022-10-31T13:49:04;5.28;;;1.10;;
39566;SDS011;25241;41.978;14.664;2022-10-31T13:51:43;5.53;;;1.10;;
39566;SDS011;25241;41.978;14.664;2022-10-31T13:54:43;7.07;;;1.42;;
39566;SDS011;25241;41.978;14.664;2022-10-31T13:57:02;9.07;;;1.20;;
39566;SDS011;25241;41.978;14.664;2022-10-31T14:02:00;12.45;;;1.88;;
39566;SDS011;25241;41.978;14.664;2022-10-31T14:04:30;9.30;;;1.77;;
39566;SDS011;25241;41.978;14.664;2022-10-31T14:07:06;6.38;;;1.10;;
39566;SDS011;25241;41.978;14.664;2022-10-31T14:09:37;3.85;;;0.90;;
39566;SDS011;25241;41.978;14.664;2022-10-31T14:12:06;2.17;;;1.45;;
39566;SDS011;25241;41.978;14.664;2022-10-31T14:14:44;3.10;;;1.52;;
39566;SDS011;25241;41.978;14.664;2022-10-31T14:17:16;7.43;;;1.58;;
39566;SDS011;25241;41.978;14.664;2022-10-31T14:19:55;2.70;;;1.48;;
39566;SDS011;25241;41.978;14.664;2022-10-31T14:22:43;6.32;;;1.20;;
39566;SDS011;25241;41.978;14.664;2022-10-31T14:25:25;5.80;;;1.52;;
39566;SDS011;25241;41.978;14.664;2022-10-31T14:27:50;3.65;;;1.08;;
39566;SDS011;25241;41.978;14.664;2022-10-31T14:30:19;6.03;;;2.03;;
39566;SDS011;25241;41.978;14.664;2022-10-31T14:32:51;5.68;;;1.80;;
39566;SDS011;25241;41.978;14.664;2022-10-31T14:35:18;6.05;;;1.33;;
39566;SDS011;25241;41.978;14.664;2022-10-31T14:43:35;9.00;;;1.67;;
39566;SDS011;25241;41.978;14.664;2022-10-31T14:46:18;4.93;;;1.48;;
39566;SDS011;25241;41.978;14.664;2022-10-31T14:51:20;3.53;;;1.20;;
39566;SDS011;25241;41.978;14.664;2022-10-31T14:54:06;6.95;;;1.10;;
39566;SDS011;25241;41.978;14.664;2022-10-31T14:56:33;4.63;;;1.45;;
39566;SDS011;25241;41.978;14.664;2022-10-31T14:59:02;5.50;;;1.20;;
39566;SDS011;25241;41.978;14.664;2022-10-31T15:01:30;5.80;;;1.10;;
39566;SDS011;25241;41.978;14.664;2022-10-31T15:04:09;3.42;;;0.98;;
39566;SDS011;25241;41.978;14.664;2022-10-31T15:06:47;8.98;;;1.60;;
39566;SDS011;25241;41.978;14.664;2022-10-31T15:09:25;3.95;;;1.23;;
39566;SDS011;25241;41.978;14.664;2022-10-31T15:11:53;5.13;;;1.20;;
39566;SDS011;25241;41.978;14.664;2022-10-31T15:14:39;1.42;;;0.75;;
39566;SDS011;25241;41.978;14.664;2022-10-31T15:17:04;2.30;;;0.73;;
39566;SDS011;25241;41.978;14.664;2022-10-31T15:19:30;5.68;;;0.82;;
39566;SDS011;25241;41.978;14.664;2022-10-31T15:22:00;7.32;;;0.52;;
39566;SDS011;25241;41.978;14.664;2022-10-31T15:24:34;6.25;;;0.50;;
39566;SDS011;25241;41.978;14.664;2022-10-31T15:27:01;1.85;;;0.88;;
39566;SDS011;25241;41.978;14.664;2022-10-31T15:29:27;5.07;;;1.60;;
39566;SDS011;25241;41.978;14.664;2022-10-31T15:31:55;7.88;;;1.50;;
39566;SDS011;25241;41.978;14.664;2022-10-31T15:37:09;5.15;;;0.57;;
39566;SDS011;25241;41.978;14.664;2022-10-31T15:39:36;6.43;;;1.15;;
39566;SDS011;25241;41.978;14.664;2022-10-31T15:42:02;4.00;;;1.38;;
39566;SDS011;25241;41.978;14.664;2022-10-31T15:44:32;8.02;;;1.48;;
39566;SDS011;25241;41.978;14.664;2022-10-31T15:47:32;7.90;;;1.52;;
39566;SDS011;25241;41.978;14.664;2022-10-31T15:49:52;4.72;;;1.30;;
39566;SDS011;25241;41.978;14.664;2022-10-31T15:57:46;1.60;;;0.93;;
39566;SDS011;25241;41.978;14.664;2022-10-31T16:05:45;7.07;;;1.20;;
39566;SDS011;25241;41.978;14.664;2022-10-31T16:10:53;5.80;;;1.30;;
39566;SDS011;25241;41.978;14.664;2022-10-31T16:13:21;7.95;;;4.03;;
39566;SDS011;25241;41.978;14.664;2022-10-31T16:15:59;7.03;;;2.15;;
39566;SDS011;25241;41.978;14.664;2022-10-31T16:18:27;5.32;;;1.48;;
39566;SDS011;25241;41.978;14.664;2022-10-31T16:20:54;6.13;;;1.55;;
39566;SDS011;25241;41.978;14.664;2022-10-31T16:23:24;2.63;;;1.23;;
39566;SDS011;25241;41.978;14.664;2022-10-31T16:25:53;3.50;;;1.15;;
39566;SDS011;25241;41.978;14.664;2022-10-31T16:28:22;2.55;;;1.35;;
39566;SDS011;25241;41.978;14.664;2022-10-31T16:30:56;3.20;;;1.23;;
39566;SDS011;25241;41.978;14.664;2022-10-31T16:33:37;3.25;;;1.27;;
39566;SDS011;25241;41.978;14.664;2022-10-31T16:38:59;3.00;;;1.05;;
39566;SDS011;25241;41.978;14.664;2022-10-31T16:41:27;5.20;;;0.98;;
39566;SDS011;25241;41.978;14.664;2022-10-31T16:43:53;6.25;;;1.90;;
39566;SDS011;25241;41.978;14.664;2022-10-31T16:46:24;11.05;;;1.30;;
39566;SDS011;25241;41.978;14.664;2022-10-31T16:48:51;2.83;;;0.93;;
39566;SDS011;25241;41.978;14.664;2022-10-31T16:51:17;6.20;;;1.45;;
39566;SDS011;25241;41.978;14.664;2022-10-31T16:53:45;4.13;;;0.80;;
39566;SDS011;25241;41.978;14.664;2022-10-31T16:56:15;3.80;;;0.80;;
39566;SDS011;25241;41.978;14.664;2022-10-31T16:58:42;3.58;;;1.17;;
39566;SDS011;25241;41.978;14.664;2022-10-31T17:01:11;4.47;;;1.60;;
39566;SDS011;25241;41.978;14.664;2022-10-31T17:03:38;1.60;;;0.50;;
39566;SDS011;25241;41.978;14.664;2022-10-31T17:06:04;2.03;;;0.93;;
39566;SDS011;25241;41.978;14.664;2022-10-31T17:08:29;2.17;;;0.85;;
39566;SDS011;25241;41.978;14.664;2022-10-31T17:10:56;3.47;;;1.13;;
39566;SDS011;25241;41.978;14.664;2022-10-31T17:13:22;6.28;;;2.72;;
39566;SDS011;25241;41.978;14.664;2022-10-31T17:15:52;5.90;;;1.23;;
39566;SDS011;25241;41.978;14.664;2022-10-31T17:18:20;8.00;;;1.60;;
39566;SDS011;25241;41.978;14.664;2022-10-31T17:20:46;10.25;;;1.15;;
39566;SDS011;25241;41.978;14.664;2022-10-31T17:23:12;4.53;;;1.10;;
39566;SDS011;25241;41.978;14.664;2022-10-31T17:25:39;5.20;;;0.90;;
39566;SDS011;25241;41.978;14.664;2022-10-31T17:28:05;2.70;;;0.68;;
39566;SDS011;25241;41.978;14.664;2022-10-31T17:30:32;2.88;;;1.17;;
39566;SDS011;25241;41.978;14.664;2022-10-31T17:32:58;2.17;;;0.90;;
39566;SDS011;25241;41.978;14.664;2022-10-31T17:35:23;1.90;;;0.98;;
39566;SDS011;25241;41.978;14.664;2022-10-31T17:37:49;5.68;;;2.00;;
39566;SDS011;25241;41.978;14.664;2022-10-31T17:40:16;8.35;;;2.17;;
39566;SDS011;25241;41.978;14.664;2022-10-31T17:42:50;4.30;;;1.70;;
39566;SDS011;25241;41.978;14.664;2022-10-31T17:45:16;9.63;;;1.88;;
39566;SDS011;25241;41.978;14.664;2022-10-31T17:47:45;5.20;;;1.33;;
39566;SDS011;25241;41.978;14.664;2022-10-31T17:50:11;4.72;;;1.08;;
39566;SDS011;25241;41.978;14.664;2022-10-31T17:52:37;3.72;;;1.25;;
39566;SDS011;25241;41.978;14.664;2022-10-31T17:55:03;4.65;;;1.10;;
39566;SDS011;25241;41.978;14.664;2022-10-31T17:57:31;5.80;;;1.42;;
39566;SDS011;25241;41.978;14.664;2022-10-31T18:02:23;6.05;;;1.83;;
39566;SDS011;25241;41.978;14.664;2022-10-31T18:04:51;4.43;;;2.47;;
39566;SDS011;25241;41.978;14.664;2022-10-31T18:07:19;4.90;;;2.38;;
39566;SDS011;25241;41.978;14.664;2022-10-31T18:09:45;3.15;;;1.83;;
39566;SDS011;25241;41.978;14.664;2022-10-31T18:12:11;6.70;;;2.67;;
39566;SDS011;25241;41.978;14.664;2022-10-31T18:14:37;6.00;;;2.45;;
39566;SDS011;25241;41.978;14.664;2022-10-31T18:17:03;7.43;;;2.47;;
39566;SDS011;25241;41.978;14.664;2022-10-31T18:19:28;8.40;;;2.78;;
39566;SDS011;25241;41.978;14.664;2022-10-31T18:21:54;10.52;;;2.50;;
39566;SDS011;25241;41.978;14.664;2022-10-31T18:24:19;7.35;;;2.28;;
39566;SDS011;25241;41.978;14.664;2022-10-31T18:26:45;8.35;;;2.50;;
39566;SDS011;25241;41.978;14.664;2022-10-31T18:29:12;6.30;;;2.58;;
39566;SDS011;25241;41.978;14.664;2022-10-31T18:31:37;5.18;;;2.60;;
39566;SDS011;25241;41.978;14.664;2022-10-31T18:34:03;10.80;;;3.33;;
39566;SDS011;25241;41.978;14.664;2022-10-31T18:36:29;4.38;;;2.15;;
39566;SDS011;25241;41.978;14.664;2022-10-31T18:38:55;5.57;;;2.35;;
39566;SDS011;25241;41.978;14.664;2022-10-31T18:41:23;6.78;;;2.58;;
39566;SDS011;25241;41.978;14.664;2022-10-31T18:43:51;4.53;;;2.33;;
39566;SDS011;25241;41.978;14.664;2022-10-31T18:46:22;20.67;;;12.35;;
39566;SDS011;25241;41.978;14.664;2022-10-31T18:48:50;8.07;;;5.13;;
39566;SDS011;25241;41.978;14.664;2022-10-31T18:51:16;9.70;;;2.10;;
39566;SDS011;25241;41.978;14.664;2022-10-31T18:53:42;6.68;;;2.03;;
39566;SDS011;25241;41.978;14.664;2022-10-31T18:56:16;4.82;;;2.55;;
39566;SDS011;25241;41.978;14.664;2022-10-31T18:58:42;6.82;;;2.20;;
39566;SDS011;25241;41.978;14.664;2022-10-31T19:01:10;10.77;;;2.85;;
39566;SDS011;25241;41.978;14.664;2022-10-31T19:03:40;10.73;;;1.90;;
39566;SDS011;25241;41.978;14.664;2022-10-31T19:06:06;8.35;;;2.10;;
39566;SDS011;25241;41.978;14.664;2022-10-31T19:08:33;5.65;;;1.90;;
39566;SDS011;25241;41.978;14.664;2022-10-31T19:11:07;5.20;;;2.30;;
39566;SDS011;25241;41.978;14.664;2022-10-31T19:13:35;6.80;;;2.33;;